createdAt,value
2018-04-15T00:02:15.584Z,86.50
2018-04-15T00:04:43.130Z,86.40
2018-04-15T00:07:10.754Z,86.50
2018-04-15T00:09:38.410Z,86.70
2018-04-15T00:12:06.022Z,86.80
2018-04-15T00:14:33.573Z,86.80
2018-04-15T00:17:01.206Z,87.00
2018-04-15T00:19:28.770Z,86.60
2018-04-15T00:21:56.320Z,86.80
2018-04-15T00:24:23.911Z,87.00
2018-04-15T00:26:51.454Z,87.00
2018-04-15T00:29:19.051Z,87.20
2018-04-15T00:31:46.587Z,87.40
2018-04-15T00:34:14.183Z,87.30
2018-04-15T00:36:41.707Z,87.90
2018-04-15T00:39:09.325Z,87.90
2018-04-15T00:41:36.882Z,87.90
2018-04-15T00:44:04.463Z,87.70
2018-04-15T00:46:32.002Z,87.90
2018-04-15T00:48:59.828Z,88.00
2018-04-15T00:51:27.370Z,87.90
2018-04-15T00:54:06.739Z,87.80
2018-04-15T00:56:34.337Z,87.60
2018-04-15T00:59:01.906Z,87.70
2018-04-15T01:01:29.453Z,87.60
2018-04-15T01:03:57.039Z,87.40
2018-04-15T01:06:24.585Z,87.20
2018-04-15T01:08:52.618Z,87.30
2018-04-15T01:11:20.201Z,87.30
2018-04-15T01:13:47.794Z,87.30
2018-04-15T01:16:15.402Z,87.30
2018-04-15T01:18:42.968Z,87.40
2018-04-15T01:21:10.560Z,87.40
2018-04-15T01:23:38.115Z,87.30
2018-04-15T01:26:05.735Z,87.60
2018-04-15T01:28:33.288Z,87.30
2018-04-15T01:31:00.862Z,87.60
2018-04-15T01:33:28.384Z,87.40
2018-04-15T01:35:56.400Z,87.70
2018-04-15T01:38:23.963Z,87.70
2018-04-15T01:40:51.524Z,87.80
2018-04-15T01:43:19.090Z,87.90
2018-04-15T01:45:53.848Z,88.20
2018-04-15T01:48:21.481Z,88.50
2018-04-15T01:50:49.065Z,88.50
2018-04-15T01:53:16.630Z,88.40
2018-04-15T01:55:44.202Z,88.30
2018-04-15T01:58:11.767Z,88.40
2018-04-15T02:00:39.346Z,88.40
2018-04-15T02:03:06.874Z,88.50
2018-04-15T02:05:34.443Z,88.40
2018-04-15T02:08:01.975Z,88.40
2018-04-15T02:10:29.534Z,88.40
2018-04-15T02:12:57.106Z,88.50
2018-04-15T02:15:24.679Z,88.30
2018-04-15T02:17:52.266Z,88.20
2018-04-15T02:20:19.852Z,88.40
2018-04-15T02:22:47.438Z,88.40
2018-04-15T02:25:15.023Z,88.30
2018-04-15T02:27:42.547Z,88.20
2018-04-15T02:30:10.548Z,88.20
2018-04-15T02:32:38.120Z,88.20
2018-04-15T02:35:05.728Z,88.30
2018-04-15T02:37:33.283Z,88.40
2018-04-15T02:40:01.372Z,88.80
2018-04-15T02:42:28.958Z,88.80
2018-04-15T02:44:56.498Z,88.70
2018-04-15T02:47:24.106Z,88.50
2018-04-15T02:49:51.676Z,88.60
2018-04-15T02:52:19.274Z,88.60
2018-04-15T02:54:46.810Z,88.80
2018-04-15T02:57:14.386Z,88.80
2018-04-15T02:59:41.973Z,88.90
2018-04-15T03:02:09.569Z,89.10
2018-04-15T03:04:37.119Z,89.20
2018-04-15T03:07:04.766Z,89.10
2018-04-15T03:09:32.322Z,88.70
2018-04-15T03:11:59.938Z,88.80
2018-04-15T03:14:27.510Z,88.90
2018-04-15T03:16:55.122Z,88.80
2018-04-15T03:19:22.671Z,88.90
2018-04-15T03:21:50.295Z,88.90
2018-04-15T03:24:17.836Z,88.90
2018-04-15T03:26:45.407Z,88.90
2018-04-15T03:29:12.970Z,88.80
2018-04-15T03:31:40.530Z,88.80
2018-04-15T03:34:08.099Z,88.50
2018-04-15T03:36:35.682Z,88.60
2018-04-15T03:39:03.284Z,88.70
2018-04-15T03:41:30.881Z,88.70
2018-04-15T03:43:58.604Z,88.40
2018-04-15T03:46:26.107Z,88.30
2018-04-15T03:48:53.737Z,88.40
2018-04-15T03:51:21.279Z,88.50
2018-04-15T03:53:48.884Z,88.70
2018-04-15T03:56:16.430Z,88.70
2018-04-15T03:58:44.028Z,88.90
2018-04-15T04:01:11.654Z,88.70
2018-04-15T04:03:39.255Z,88.70
2018-04-15T04:06:06.820Z,88.90
2018-04-15T04:08:34.387Z,89.10
2018-04-15T04:11:01.962Z,89.10
2018-04-15T04:13:29.550Z,89.20
2018-04-15T04:15:57.114Z,88.90
2018-04-15T04:18:36.931Z,89.10
2018-04-15T04:21:16.261Z,89.10
2018-04-15T04:23:55.562Z,89.10
2018-04-15T04:26:23.143Z,89.10
2018-04-15T04:28:50.726Z,89.20
2018-04-15T04:31:18.291Z,89.40
2018-04-15T04:33:45.870Z,89.30
2018-04-15T04:36:13.419Z,89.20
2018-04-15T04:38:41.059Z,89.30
2018-04-15T04:41:08.628Z,89.20
2018-04-15T04:43:36.258Z,89.50
2018-04-15T04:46:03.801Z,89.50
2018-04-15T04:48:31.383Z,89.40
2018-04-15T04:50:58.942Z,89.40
2018-04-15T04:53:26.514Z,89.30
2018-04-15T04:55:54.051Z,89.20
2018-04-15T04:58:21.626Z,89.20
2018-04-15T05:00:49.164Z,89.20
2018-04-15T05:03:34.230Z,89.20
2018-04-15T05:06:01.795Z,89.30
2018-04-15T05:08:29.410Z,89.20
2018-04-15T05:10:57.004Z,88.90
2018-04-15T05:13:24.590Z,89.10
2018-04-15T05:15:52.140Z,89.10
2018-04-15T05:18:19.711Z,89.20
2018-04-15T05:20:47.268Z,88.90
2018-04-15T05:23:14.851Z,88.90
2018-04-15T05:25:42.408Z,88.90
2018-04-15T05:28:10.007Z,88.80
2018-04-15T05:30:37.619Z,88.60
2018-04-15T05:33:05.172Z,88.80
2018-04-15T05:35:32.804Z,88.70
2018-04-15T05:38:00.433Z,88.60
2018-04-15T05:40:28.012Z,88.60
2018-04-15T05:42:55.576Z,88.50
2018-04-15T05:45:23.179Z,88.30
2018-04-15T05:47:50.759Z,87.90
2018-04-15T05:50:18.364Z,87.90
2018-04-15T05:52:45.947Z,87.90
2018-04-15T05:55:13.520Z,87.90
2018-04-15T05:57:41.089Z,87.40
2018-04-15T06:00:09.082Z,87.20
2018-04-15T06:02:36.621Z,87.20
2018-04-15T06:05:04.211Z,86.80
2018-04-15T06:07:31.787Z,86.20
2018-04-15T06:09:59.366Z,85.90
2018-04-15T06:12:26.935Z,85.80
2018-04-15T06:14:54.547Z,85.60
2018-04-15T06:17:22.083Z,85.30
2018-04-15T06:19:49.669Z,85.30
2018-04-15T06:22:17.214Z,85.40
2018-04-15T06:24:44.837Z,85.40
2018-04-15T06:27:12.467Z,85.40
2018-04-15T06:29:40.075Z,85.10
2018-04-15T06:32:07.650Z,85.20
2018-04-15T06:34:35.257Z,85.30
2018-04-15T06:37:02.850Z,84.90
2018-04-15T06:39:30.471Z,84.50
2018-04-15T06:41:58.026Z,84.10
2018-04-15T06:44:25.575Z,84.30
2018-04-15T06:46:53.167Z,83.90
2018-04-15T06:49:20.827Z,83.80
2018-04-15T06:51:48.401Z,83.60
2018-04-15T06:54:15.966Z,83.10
2018-04-15T06:56:43.544Z,83.00
2018-04-15T06:59:11.118Z,82.80
2018-04-15T07:01:38.694Z,82.60
2018-04-15T07:04:06.269Z,82.50
2018-04-15T07:06:33.890Z,82.10
2018-04-15T07:09:01.504Z,81.50
2018-04-15T07:11:29.096Z,81.40
2018-04-15T07:13:56.664Z,79.80
2018-04-15T07:16:24.244Z,79.90
2018-04-15T07:18:51.834Z,79.60
2018-04-15T07:21:19.450Z,79.60
2018-04-15T07:23:47.013Z,79.60
2018-04-15T07:26:14.592Z,79.40
2018-04-15T07:28:42.317Z,78.40
2018-04-15T07:31:09.951Z,78.90
2018-04-15T07:33:37.531Z,77.70
2018-04-15T07:36:05.188Z,78.00
2018-04-15T07:38:32.746Z,76.90
2018-04-15T07:41:00.333Z,77.80
2018-04-15T07:43:27.879Z,76.70
2018-04-15T07:46:00.868Z,76.70
2018-04-15T07:48:28.412Z,75.80
2018-04-15T07:50:55.970Z,74.40
2018-04-15T07:53:25.965Z,74.40
2018-04-15T07:55:54.156Z,74.20
2018-04-15T07:58:22.176Z,73.80
2018-04-15T08:00:50.467Z,72.80
2018-04-15T08:03:18.071Z,71.70
2018-04-15T08:05:45.649Z,72.10
2018-04-15T08:08:13.267Z,72.90
2018-04-15T08:10:40.913Z,72.50
2018-04-15T08:13:08.600Z,73.60
2018-04-15T08:15:36.279Z,73.80
2018-04-15T08:18:03.990Z,72.80
2018-04-15T08:20:31.582Z,73.40
2018-04-15T08:22:59.178Z,72.90
2018-04-15T08:25:26.724Z,72.70
2018-04-15T08:27:54.370Z,72.90
2018-04-15T08:30:21.908Z,73.10
2018-04-15T08:32:49.487Z,73.00
2018-04-15T08:35:17.056Z,72.10
2018-04-15T08:37:44.660Z,72.70
2018-04-15T08:40:12.226Z,71.60
2018-04-15T08:42:39.784Z,71.40
2018-04-15T08:45:07.376Z,71.20
2018-04-15T08:47:35.024Z,70.20
2018-04-15T08:50:02.630Z,71.90
2018-04-15T08:52:30.270Z,70.70
2018-04-15T08:54:57.835Z,71.60
2018-04-15T08:57:25.395Z,70.30
2018-04-15T08:59:52.968Z,69.70
2018-04-15T09:02:20.542Z,70.20
2018-04-15T09:04:48.579Z,70.30
2018-04-15T09:07:16.134Z,70.20
2018-04-15T09:09:43.726Z,70.50
2018-04-15T09:12:11.300Z,70.50
2018-04-15T09:14:38.903Z,71.90
2018-04-15T09:17:06.472Z,71.30
2018-04-15T09:19:35.122Z,71.00
2018-04-15T09:22:03.274Z,70.90
2018-04-15T09:24:31.506Z,70.60
2018-04-15T09:27:00.188Z,70.60
2018-04-15T09:29:28.307Z,70.00
2018-04-15T09:31:55.900Z,68.30
2018-04-15T09:34:27.240Z,68.50
2018-04-15T09:36:55.409Z,69.30
2018-04-15T09:39:23.022Z,68.70
2018-04-15T09:41:50.607Z,68.50
2018-04-15T09:44:19.223Z,68.90
2018-04-15T09:46:46.831Z,68.20
2018-04-15T09:49:14.407Z,68.70
2018-04-15T09:51:42.055Z,68.00
2018-04-15T09:54:09.653Z,67.40
2018-04-15T09:56:37.193Z,66.80
2018-04-15T09:59:04.790Z,68.30
2018-04-15T10:01:32.392Z,67.90
2018-04-15T10:03:59.969Z,68.20
2018-04-15T10:06:27.566Z,67.20
2018-04-15T10:08:55.156Z,66.00
2018-04-15T10:11:23.569Z,66.50
2018-04-15T10:13:51.177Z,67.70
2018-04-15T10:16:18.746Z,64.00
2018-04-15T10:18:46.314Z,64.20
2018-04-15T10:21:14.057Z,64.60
2018-04-15T10:23:42.018Z,65.10
2018-04-15T10:26:10.803Z,65.10
2018-04-15T10:28:38.390Z,64.50
2018-04-15T10:31:05.950Z,65.20
2018-04-15T10:33:33.563Z,65.00
2018-04-15T10:36:01.117Z,63.00
2018-04-15T10:38:28.736Z,60.50
2018-04-15T10:40:56.281Z,62.20
2018-04-15T10:43:23.872Z,62.80
2018-04-15T10:45:51.492Z,62.10
2018-04-15T10:48:19.015Z,62.70
2018-04-15T10:50:46.638Z,60.90
2018-04-15T10:53:14.187Z,60.50
2018-04-15T10:55:41.782Z,61.10
2018-04-15T10:58:17.023Z,59.20
2018-04-15T11:00:44.660Z,61.70
2018-04-15T11:03:12.679Z,60.30
2018-04-15T11:05:40.342Z,60.20
2018-04-15T11:08:08.291Z,59.60
2018-04-15T11:10:35.887Z,59.60
2018-04-15T11:13:03.448Z,61.10
2018-04-15T11:15:31.903Z,59.70
2018-04-15T11:18:00.211Z,60.30
2018-04-15T11:20:28.912Z,60.30
2018-04-15T11:22:58.545Z,59.60
2018-04-15T11:25:26.167Z,61.10
2018-04-15T11:27:53.841Z,60.30
2018-04-15T11:30:21.910Z,61.40
2018-04-15T11:32:49.980Z,61.70
2018-04-15T11:35:18.299Z,61.50
2018-04-15T11:37:46.530Z,61.50
2018-04-15T11:40:14.264Z,63.60
2018-04-15T11:42:41.877Z,62.10
2018-04-15T11:45:09.486Z,60.20
2018-04-15T11:47:37.058Z,60.10
2018-04-15T11:50:05.091Z,62.00
2018-04-15T11:52:33.003Z,62.30
2018-04-15T11:55:01.399Z,62.70
2018-04-15T11:57:29.212Z,62.80
2018-04-15T11:59:57.982Z,60.80
2018-04-15T12:02:25.567Z,57.80
2018-04-15T12:05:05.467Z,60.90
2018-04-15T12:07:34.620Z,62.80
2018-04-15T12:10:02.192Z,61.90
2018-04-15T12:12:32.254Z,62.70
2018-04-15T12:15:00.452Z,62.60
2018-04-15T12:17:28.944Z,60.50
2018-04-15T12:19:57.197Z,62.20
2018-04-15T12:22:24.966Z,61.70
2018-04-15T12:24:53.697Z,62.00
2018-04-15T12:27:21.282Z,62.30
2018-04-15T12:29:50.847Z,59.90
2018-04-15T12:32:19.969Z,59.90
2018-04-15T12:34:48.160Z,58.70
2018-04-15T12:37:17.459Z,61.10
2018-04-15T12:39:45.938Z,59.30
2018-04-15T12:42:15.050Z,59.70
2018-04-15T12:44:43.033Z,61.90
2018-04-15T12:47:10.588Z,61.90
2018-04-15T12:49:39.549Z,61.00
2018-04-15T12:52:08.599Z,61.60
2018-04-15T12:54:37.978Z,62.10
2018-04-15T12:57:08.053Z,61.20
2018-04-15T12:59:36.610Z,62.60
2018-04-15T13:02:05.215Z,61.30
2018-04-15T13:04:39.625Z,62.20
2018-04-15T13:07:07.904Z,62.80
2018-04-15T13:09:35.523Z,63.50
2018-04-15T13:12:03.188Z,64.30
2018-04-15T13:14:34.669Z,63.40
2018-04-15T13:17:02.270Z,64.50
2018-04-15T13:19:30.016Z,63.20
2018-04-15T13:21:58.887Z,60.60
2018-04-15T13:24:27.405Z,60.50
2018-04-15T13:26:55.380Z,59.40
2018-04-15T13:29:22.964Z,58.90
2018-04-15T13:31:51.309Z,58.10
2018-04-15T13:34:19.716Z,57.30
2018-04-15T13:36:51.994Z,58.10
2018-04-15T13:39:35.154Z,58.00
2018-04-15T13:42:02.780Z,58.50
2018-04-15T13:44:30.441Z,57.70
2018-04-15T13:46:58.122Z,56.80
2018-04-15T13:49:26.657Z,55.60
2018-04-15T13:51:54.225Z,54.60
2018-04-15T13:54:33.576Z,51.70
2018-04-15T13:57:02.207Z,54.10
2018-04-15T13:59:33.301Z,53.20
2018-04-15T14:02:04.909Z,53.20
2018-04-15T14:04:33.430Z,55.20
2018-04-15T14:07:01.479Z,51.90
2018-04-15T14:09:29.058Z,51.90
2018-04-15T14:11:56.640Z,52.20
2018-04-15T14:14:24.250Z,50.20
2018-04-15T14:16:51.831Z,49.50
2018-04-15T14:19:19.912Z,49.70
2018-04-15T14:21:57.165Z,49.80
2018-04-15T14:24:24.789Z,49.60
2018-04-15T14:26:52.322Z,47.10
2018-04-15T14:29:19.912Z,48.30
2018-04-15T14:31:47.479Z,50.80
2018-04-15T14:34:15.094Z,50.30
2018-04-15T14:36:42.645Z,49.80
2018-04-15T14:39:10.241Z,49.10
2018-04-15T14:41:38.524Z,51.20
2018-04-15T14:44:06.066Z,51.20
2018-04-15T14:46:35.592Z,53.80
2018-04-15T14:49:03.885Z,52.70
2018-04-15T14:51:32.582Z,50.40
2018-04-15T14:54:00.179Z,47.30
2018-04-15T14:56:27.755Z,47.60
2018-04-15T14:58:56.656Z,47.20
2018-04-15T15:01:24.922Z,47.00
2018-04-15T15:03:52.502Z,48.90
2018-04-15T15:06:20.104Z,46.50
2018-04-15T15:08:47.656Z,45.80
2018-04-15T15:11:16.348Z,46.80
2018-04-15T15:13:43.937Z,48.50
2018-04-15T15:16:14.822Z,48.40
2018-04-15T15:18:42.391Z,46.70
2018-04-15T15:21:09.957Z,47.60
2018-04-15T15:23:37.528Z,49.20
2018-04-15T15:26:13.372Z,50.10
2018-04-15T15:28:41.992Z,53.00
2018-04-15T15:31:09.637Z,53.00
2018-04-15T15:33:37.232Z,54.60
2018-04-15T15:36:04.816Z,56.50
2018-04-15T15:38:32.375Z,57.20
2018-04-15T15:40:59.963Z,58.10
2018-04-15T15:43:27.546Z,58.20
2018-04-15T15:45:56.885Z,59.30
2018-04-15T15:48:24.431Z,58.70
2018-04-15T15:50:52.015Z,58.80
2018-04-15T15:53:19.558Z,58.70
2018-04-15T15:55:47.214Z,58.50
2018-04-15T15:58:14.758Z,60.50
2018-04-15T16:00:42.335Z,60.80
2018-04-15T16:03:09.916Z,58.20
2018-04-15T16:05:37.491Z,57.40
2018-04-15T16:08:05.058Z,58.10
2018-04-15T16:10:33.010Z,57.20
2018-04-15T16:13:14.640Z,57.20
2018-04-15T16:15:42.215Z,56.20
2018-04-15T16:18:09.815Z,54.10
2018-04-15T16:20:37.356Z,54.90
2018-04-15T16:23:23.591Z,54.40
2018-04-15T16:25:51.590Z,53.90
2018-04-15T16:28:19.181Z,53.80
2018-04-15T16:30:46.743Z,54.00
2018-04-15T16:33:14.372Z,54.30
2018-04-15T16:35:41.959Z,53.70
2018-04-15T16:38:09.577Z,53.30
2018-04-15T16:40:37.146Z,52.80
2018-04-15T16:43:04.750Z,53.20
2018-04-15T16:45:32.343Z,53.40
2018-04-15T16:47:59.977Z,54.20
2018-04-15T16:50:27.534Z,53.60
2018-04-15T16:52:55.135Z,54.20
2018-04-15T16:55:22.747Z,55.60
2018-04-15T16:57:50.414Z,56.40
2018-04-15T17:00:18.007Z,56.40
2018-04-15T17:02:45.592Z,55.10
2018-04-15T17:05:13.146Z,55.30
2018-04-15T17:07:40.696Z,56.40
2018-04-15T17:10:08.364Z,57.20
2018-04-15T17:12:36.995Z,56.90
2018-04-15T17:15:04.550Z,58.60
2018-04-15T17:17:32.127Z,59.00
2018-04-15T17:19:59.735Z,60.00
2018-04-15T17:22:27.371Z,60.70
2018-04-15T17:24:54.985Z,61.00
2018-04-15T17:27:22.582Z,61.50
2018-04-15T17:29:50.224Z,61.50
2018-04-15T17:32:17.858Z,61.70
2018-04-15T17:34:45.454Z,62.00
2018-04-15T17:37:13.013Z,62.60
2018-04-15T17:39:40.613Z,63.10
2018-04-15T17:42:08.171Z,63.40
2018-04-15T17:44:35.782Z,63.50
2018-04-15T17:47:03.861Z,64.30
2018-04-15T17:49:31.483Z,65.40
2018-04-15T17:51:59.055Z,65.80
2018-04-15T17:54:27.789Z,66.20
2018-04-15T17:56:55.706Z,66.50
2018-04-15T17:59:24.103Z,66.50
2018-04-15T18:01:52.456Z,66.50
2018-04-15T18:04:20.186Z,66.50
2018-04-15T18:06:47.803Z,66.80
2018-04-15T18:09:16.322Z,66.00
2018-04-15T18:11:44.208Z,66.40
2018-04-15T18:14:12.031Z,66.20
2018-04-15T18:16:39.615Z,67.70
2018-04-15T18:19:07.241Z,69.10
2018-04-15T18:21:34.917Z,69.40
2018-04-15T18:24:03.226Z,68.60
2018-04-15T18:26:30.842Z,67.90
2018-04-15T18:28:58.471Z,68.10
2018-04-15T18:31:26.068Z,68.30
2018-04-15T18:33:53.659Z,69.20
2018-04-15T18:36:21.205Z,69.60
2018-04-15T18:38:48.971Z,70.10
2018-04-15T18:41:16.574Z,70.50
2018-04-15T18:43:44.566Z,70.70
2018-04-15T18:46:12.131Z,71.00
2018-04-15T18:48:39.704Z,71.90
2018-04-15T18:51:07.292Z,72.40
2018-04-15T18:53:34.839Z,73.10
2018-04-15T18:56:02.437Z,73.50
2018-04-15T18:58:30.356Z,74.10
2018-04-15T19:00:59.154Z,74.10
2018-04-15T19:03:26.720Z,73.50
2018-04-15T19:05:54.319Z,72.40
2018-04-15T19:08:21.923Z,72.40
2018-04-15T19:10:49.524Z,72.90
2018-04-15T19:13:17.118Z,72.70
2018-04-15T19:15:44.746Z,71.90
2018-04-15T19:18:12.395Z,71.50
2018-04-15T19:20:40.009Z,72.60
2018-04-15T19:23:13.262Z,73.80
2018-04-15T19:25:42.920Z,74.40
2018-04-15T19:28:10.464Z,75.50
2018-04-15T19:30:38.091Z,75.40
2018-04-15T19:33:05.666Z,75.10
2018-04-15T19:35:33.255Z,75.20
2018-04-15T19:38:00.851Z,75.10
2018-04-15T19:40:28.851Z,75.40
2018-04-15T19:42:56.471Z,75.30
2018-04-15T19:45:24.494Z,76.20
2018-04-15T19:47:52.050Z,76.20
2018-04-15T19:50:19.618Z,76.90
2018-04-15T19:52:47.184Z,76.70
2018-04-15T19:55:14.767Z,77.00
2018-04-15T19:57:42.307Z,77.00
2018-04-15T20:00:09.975Z,77.10
2018-04-15T20:02:37.617Z,77.20
2018-04-15T20:05:05.271Z,77.20
2018-04-15T20:07:32.859Z,77.30
2018-04-15T20:10:00.466Z,77.30
2018-04-15T20:12:28.120Z,77.40
2018-04-15T20:14:55.647Z,77.30
2018-04-15T20:17:23.269Z,77.30
2018-04-15T20:19:50.859Z,77.70
2018-04-15T20:22:18.675Z,77.80
2018-04-15T20:24:46.264Z,78.10
2018-04-15T20:27:13.892Z,78.40
2018-04-15T20:29:41.447Z,78.40
2018-04-15T20:32:09.005Z,78.40
2018-04-15T20:34:36.572Z,78.90
2018-04-15T20:37:04.158Z,79.20
2018-04-15T20:39:31.771Z,79.20
2018-04-15T20:41:59.371Z,79.30
2018-04-15T20:44:26.948Z,79.30
2018-04-15T20:46:54.580Z,79.90
2018-04-15T20:49:23.335Z,79.70
2018-04-15T20:51:50.932Z,79.70
2018-04-15T20:54:18.580Z,79.80
2018-04-15T20:56:46.155Z,80.00
2018-04-15T20:59:13.713Z,80.20
2018-04-15T21:01:41.262Z,80.10
2018-04-15T21:04:08.830Z,80.10
2018-04-15T21:06:36.404Z,80.20
2018-04-15T21:09:04.011Z,80.30
2018-04-15T21:11:31.584Z,80.60
2018-04-15T21:13:59.174Z,80.60
2018-04-15T21:16:26.711Z,80.60
2018-04-15T21:18:54.307Z,80.60
2018-04-15T21:21:21.924Z,80.60
2018-04-15T21:23:49.491Z,80.60
2018-04-15T21:26:17.051Z,80.60
2018-04-15T21:28:44.625Z,80.30
2018-04-15T21:31:12.225Z,80.60
2018-04-15T21:33:39.812Z,80.60
2018-04-15T21:36:07.362Z,81.10
2018-04-15T21:38:34.935Z,81.40
2018-04-15T21:41:02.511Z,81.30
2018-04-15T21:43:30.096Z,81.30
2018-04-15T21:45:57.682Z,81.60
2018-04-15T21:48:25.254Z,81.70
2018-04-15T21:50:52.832Z,82.00
2018-04-15T21:53:20.773Z,82.20
2018-04-15T21:55:48.332Z,82.30
2018-04-15T21:58:15.904Z,82.40
2018-04-15T22:00:43.488Z,82.50
2018-04-15T22:03:11.104Z,82.70
2018-04-15T22:05:38.640Z,82.80
2018-04-15T22:08:06.199Z,82.70
2018-04-15T22:10:33.779Z,82.80
2018-04-15T22:13:07.914Z,83.00
2018-04-15T22:15:35.490Z,82.90
2018-04-15T22:18:03.043Z,82.80
2018-04-15T22:20:30.642Z,82.80
2018-04-15T22:22:58.219Z,82.80
2018-04-15T22:25:25.844Z,83.00
2018-04-15T22:27:53.416Z,83.50
2018-04-15T22:30:21.028Z,83.20
2018-04-15T22:32:48.598Z,83.40
2018-04-15T22:35:16.207Z,83.10
2018-04-15T22:37:43.775Z,83.00
2018-04-15T22:40:11.408Z,83.10
2018-04-15T22:42:38.992Z,83.50
2018-04-15T22:45:06.641Z,84.30
2018-04-15T22:47:34.248Z,84.30
2018-04-15T22:50:07.474Z,84.60
2018-04-15T22:52:35.402Z,85.60
2018-04-15T22:55:02.980Z,85.60
2018-04-15T22:57:30.575Z,85.50
2018-04-15T22:59:58.138Z,85.70
2018-04-15T23:02:25.765Z,86.20
2018-04-15T23:04:53.358Z,86.40
2018-04-15T23:07:20.889Z,86.40
2018-04-15T23:09:48.867Z,86.80
2018-04-15T23:12:16.435Z,86.80
2018-04-15T23:14:44.006Z,86.90
2018-04-15T23:17:11.608Z,87.10
2018-04-15T23:19:39.199Z,86.80
2018-04-15T23:22:07.195Z,86.60
2018-04-15T23:24:34.769Z,86.60
2018-04-15T23:27:02.319Z,86.90
2018-04-15T23:29:29.898Z,87.00
2018-04-15T23:31:57.431Z,87.40
2018-04-15T23:34:25.078Z,87.80
2018-04-15T23:36:52.663Z,87.80
2018-04-15T23:39:20.232Z,87.90
2018-04-15T23:41:47.815Z,88.00
2018-04-15T23:44:15.375Z,88.10
2018-04-15T23:46:42.971Z,87.90
2018-04-15T23:49:10.521Z,88.10
2018-04-15T23:51:38.094Z,88.00
2018-04-15T23:54:05.685Z,88.00
2018-04-15T23:56:33.304Z,87.80
2018-04-15T23:59:00.900Z,87.70
